sensor_id;sensor_type;location;lat;lon;timestamp;temperature;humidity
43049;DHT22;28673;44.412;11.918;2024-02-14T00:00:12;5.80;99.90
43049;DHT22;28673;44.412;11.918;2024-02-14T00:02:44;5.80;99.90
43049;DHT22;28673;44.412;11.918;2024-02-14T00:05:10;5.80;99.90
43049;DHT22;28673;44.412;11.918;2024-02-14T00:07:39;5.70;99.90
43049;DHT22;28673;44.412;11.918;2024-02-14T00:10:07;5.70;99.90
43049;DHT22;28673;44.412;11.918;2024-02-14T00:12:34;5.70;99.90
43049;DHT22;28673;44.412;11.918;2024-02-14T00:15:00;5.70;99.90
43049;DHT22;28673;44.412;11.918;2024-02-14T00:17:26;5.70;99.90
43049;DHT22;28673;44.412;11.918;2024-02-14T00:19:52;5.70;99.90
43049;DHT22;28673;44.412;11.918;2024-02-14T00:22:18;5.70;99.90
43049;DHT22;28673;44.412;11.918;2024-02-14T00:24:43;5.70;99.90
43049;DHT22;28673;44.412;11.918;2024-02-14T00:27:10;5.70;99.90
43049;DHT22;28673;44.412;11.918;2024-02-14T00:29:36;5.60;99.90
43049;DHT22;28673;44.412;11.918;2024-02-14T00:32:01;5.60;99.90
43049;DHT22;28673;44.412;11.918;2024-02-14T00:34:27;5.60;99.90
43049;DHT22;28673;44.412;11.918;2024-02-14T00:36:53;5.60;99.90
43049;DHT22;28673;44.412;11.918;2024-02-14T00:39:19;5.60;99.90
43049;DHT22;28673;44.412;11.918;2024-02-14T00:41:46;5.60;99.90
43049;DHT22;28673;44.412;11.918;2024-02-14T00:44:13;5.60;99.90
43049;DHT22;28673;44.412;11.918;2024-02-14T00:46:43;5.60;99.90
43049;DHT22;28673;44.412;11.918;2024-02-14T00:49:09;5.60;99.90
43049;DHT22;28673;44.412;11.918;2024-02-14T00:51:36;5.60;99.90
43049;DHT22;28673;44.412;11.918;2024-02-14T00:54:04;5.60;99.90
43049;DHT22;28673;44.412;11.918;2024-02-14T00:56:29;5.60;99.90
43049;DHT22;28673;44.412;11.918;2024-02-14T00:58:55;5.60;99.90
43049;DHT22;28673;44.412;11.918;2024-02-14T01:01:22;5.60;99.90
43049;DHT22;28673;44.412;11.918;2024-02-14T01:03:48;5.60;99.90
43049;DHT22;28673;44.412;11.918;2024-02-14T01:06:15;5.60;99.90
43049;DHT22;28673;44.412;11.918;2024-02-14T01:08:44;5.60;99.90
43049;DHT22;28673;44.412;11.918;2024-02-14T01:11:10;5.60;99.90
43049;DHT22;28673;44.412;11.918;2024-02-14T01:13:36;5.60;99.90
43049;DHT22;28673;44.412;11.918;2024-02-14T01:16:05;5.60;99.90
43049;DHT22;28673;44.412;11.918;2024-02-14T01:18:31;5.60;99.90
43049;DHT22;28673;44.412;11.918;2024-02-14T01:21:00;5.60;99.90
43049;DHT22;28673;44.412;11.918;2024-02-14T01:23:26;5.60;99.90
43049;DHT22;28673;44.412;11.918;2024-02-14T01:25:52;5.50;99.90
43049;DHT22;28673;44.412;11.918;2024-02-14T01:28:20;5.50;99.90
43049;DHT22;28673;44.412;11.918;2024-02-14T01:30:46;5.50;99.90
43049;DHT22;28673;44.412;11.918;2024-02-14T01:33:11;5.60;99.90
43049;DHT22;28673;44.412;11.918;2024-02-14T01:35:37;5.50;99.90
43049;DHT22;28673;44.412;11.918;2024-02-14T01:38:04;5.50;99.90
43049;DHT22;28673;44.412;11.918;2024-02-14T01:40:30;5.50;99.90
43049;DHT22;28673;44.412;11.918;2024-02-14T01:42:56;5.50;99.90
43049;DHT22;28673;44.412;11.918;2024-02-14T01:45:22;5.40;99.90
43049;DHT22;28673;44.412;11.918;2024-02-14T01:47:48;5.30;99.90
43049;DHT22;28673;44.412;11.918;2024-02-14T01:50:16;5.30;99.90
43049;DHT22;28673;44.412;11.918;2024-02-14T01:52:42;5.30;99.90
43049;DHT22;28673;44.412;11.918;2024-02-14T01:55:11;5.30;99.90
43049;DHT22;28673;44.412;11.918;2024-02-14T01:57:39;5.30;99.90
43049;DHT22;28673;44.412;11.918;2024-02-14T02:00:06;5.20;99.90
43049;DHT22;28673;44.412;11.918;2024-02-14T02:02:38;5.20;99.90
43049;DHT22;28673;44.412;11.918;2024-02-14T02:05:11;5.20;99.90
43049;DHT22;28673;44.412;11.918;2024-02-14T02:07:36;5.10;99.90
43049;DHT22;28673;44.412;11.918;2024-02-14T02:10:06;5.10;99.90
43049;DHT22;28673;44.412;11.918;2024-02-14T02:12:31;5.10;99.90
43049;DHT22;28673;44.412;11.918;2024-02-14T02:14:58;5.10;99.90
43049;DHT22;28673;44.412;11.918;2024-02-14T02:17:24;5.00;99.90
43049;DHT22;28673;44.412;11.918;2024-02-14T02:19:52;5.00;99.90
43049;DHT22;28673;44.412;11.918;2024-02-14T02:22:18;5.00;99.90
43049;DHT22;28673;44.412;11.918;2024-02-14T02:24:44;5.00;99.90
43049;DHT22;28673;44.412;11.918;2024-02-14T02:27:10;4.90;99.90
43049;DHT22;28673;44.412;11.918;2024-02-14T02:29:39;4.90;99.90
43049;DHT22;28673;44.412;11.918;2024-02-14T02:32:05;4.90;99.90
43049;DHT22;28673;44.412;11.918;2024-02-14T02:34:31;4.90;99.90
43049;DHT22;28673;44.412;11.918;2024-02-14T02:36:57;4.90;99.90
43049;DHT22;28673;44.412;11.918;2024-02-14T02:39:23;4.80;99.90
43049;DHT22;28673;44.412;11.918;2024-02-14T02:41:49;4.80;99.90
43049;DHT22;28673;44.412;11.918;2024-02-14T02:44:15;4.80;99.90
43049;DHT22;28673;44.412;11.918;2024-02-14T02:46:41;4.80;99.90
43049;DHT22;28673;44.412;11.918;2024-02-14T02:49:07;4.80;99.90
43049;DHT22;28673;44.412;11.918;2024-02-14T02:51:33;4.80;99.90
43049;DHT22;28673;44.412;11.918;2024-02-14T02:53:59;4.80;99.90
43049;DHT22;28673;44.412;11.918;2024-02-14T02:56:24;4.80;99.90
43049;DHT22;28673;44.412;11.918;2024-02-14T02:58:54;4.70;99.90
43049;DHT22;28673;44.412;11.918;2024-02-14T03:01:20;4.70;99.90
43049;DHT22;28673;44.412;11.918;2024-02-14T03:03:49;4.70;99.90
43049;DHT22;28673;44.412;11.918;2024-02-14T03:06:15;4.70;99.90
43049;DHT22;28673;44.412;11.918;2024-02-14T03:08:40;4.70;99.90
43049;DHT22;28673;44.412;11.918;2024-02-14T03:11:06;4.60;99.90
43049;DHT22;28673;44.412;11.918;2024-02-14T03:13:32;4.60;99.90
43049;DHT22;28673;44.412;11.918;2024-02-14T03:15:58;4.60;99.90
43049;DHT22;28673;44.412;11.918;2024-02-14T03:18:25;4.60;99.90
43049;DHT22;28673;44.412;11.918;2024-02-14T03:20:50;4.50;99.90
43049;DHT22;28673;44.412;11.918;2024-02-14T03:23:19;4.50;99.90
43049;DHT22;28673;44.412;11.918;2024-02-14T03:25:44;4.50;99.90
43049;DHT22;28673;44.412;11.918;2024-02-14T03:28:10;4.50;99.90
43049;DHT22;28673;44.412;11.918;2024-02-14T03:30:38;4.40;99.90
43049;DHT22;28673;44.412;11.918;2024-02-14T03:33:07;4.40;99.90
43049;DHT22;28673;44.412;11.918;2024-02-14T03:35:36;4.40;99.90
43049;DHT22;28673;44.412;11.918;2024-02-14T03:38:02;4.40;99.90
43049;DHT22;28673;44.412;11.918;2024-02-14T03:40:28;4.30;99.90
43049;DHT22;28673;44.412;11.918;2024-02-14T03:42:56;4.30;99.90
43049;DHT22;28673;44.412;11.918;2024-02-14T03:45:22;4.30;99.90
43049;DHT22;28673;44.412;11.918;2024-02-14T03:47:48;4.30;99.90
43049;DHT22;28673;44.412;11.918;2024-02-14T03:50:14;4.30;99.90
43049;DHT22;28673;44.412;11.918;2024-02-14T03:52:40;4.20;99.90
43049;DHT22;28673;44.412;11.918;2024-02-14T03:55:08;4.20;99.90
43049;DHT22;28673;44.412;11.918;2024-02-14T03:57:39;4.20;99.90
43049;DHT22;28673;44.412;11.918;2024-02-14T04:00:05;4.20;99.90
43049;DHT22;28673;44.412;11.918;2024-02-14T04:02:39;4.20;99.90
43049;DHT22;28673;44.412;11.918;2024-02-14T04:05:05;4.20;99.90
43049;DHT22;28673;44.412;11.918;2024-02-14T04:07:32;4.10;99.90
43049;DHT22;28673;44.412;11.918;2024-02-14T04:10:00;4.10;99.90
43049;DHT22;28673;44.412;11.918;2024-02-14T04:12:25;4.10;99.90
43049;DHT22;28673;44.412;11.918;2024-02-14T04:14:51;4.10;99.90
43049;DHT22;28673;44.412;11.918;2024-02-14T04:17:17;4.10;99.90
43049;DHT22;28673;44.412;11.918;2024-02-14T04:19:42;4.10;99.90
43049;DHT22;28673;44.412;11.918;2024-02-14T04:22:08;4.00;99.90
43049;DHT22;28673;44.412;11.918;2024-02-14T04:24:34;4.00;99.90
43049;DHT22;28673;44.412;11.918;2024-02-14T04:27:00;4.00;99.90
43049;DHT22;28673;44.412;11.918;2024-02-14T04:29:28;4.00;99.90
43049;DHT22;28673;44.412;11.918;2024-02-14T04:31:56;4.00;99.90
43049;DHT22;28673;44.412;11.918;2024-02-14T04:34:22;4.00;99.90
43049;DHT22;28673;44.412;11.918;2024-02-14T04:36:48;4.00;99.90
43049;DHT22;28673;44.412;11.918;2024-02-14T04:39:14;4.00;99.90
43049;DHT22;28673;44.412;11.918;2024-02-14T04:41:40;4.00;99.90
43049;DHT22;28673;44.412;11.918;2024-02-14T04:44:05;4.00;99.90
43049;DHT22;28673;44.412;11.918;2024-02-14T04:46:34;4.00;99.90
43049;DHT22;28673;44.412;11.918;2024-02-14T04:49:05;4.00;99.90
43049;DHT22;28673;44.412;11.918;2024-02-14T04:51:30;4.00;99.90
43049;DHT22;28673;44.412;11.918;2024-02-14T04:53:57;4.00;99.90
43049;DHT22;28673;44.412;11.918;2024-02-14T04:56:26;4.00;99.90
43049;DHT22;28673;44.412;11.918;2024-02-14T04:58:53;4.00;99.90
43049;DHT22;28673;44.412;11.918;2024-02-14T05:01:20;4.00;99.90
43049;DHT22;28673;44.412;11.918;2024-02-14T05:03:46;4.00;99.90
43049;DHT22;28673;44.412;11.918;2024-02-14T05:06:12;4.00;99.90
43049;DHT22;28673;44.412;11.918;2024-02-14T05:08:37;3.90;99.90
43049;DHT22;28673;44.412;11.918;2024-02-14T05:11:03;3.90;99.90
43049;DHT22;28673;44.412;11.918;2024-02-14T05:13:30;3.90;99.90
43049;DHT22;28673;44.412;11.918;2024-02-14T05:15:56;3.90;99.90
43049;DHT22;28673;44.412;11.918;2024-02-14T05:18:22;3.90;99.90
43049;DHT22;28673;44.412;11.918;2024-02-14T05:20:48;3.90;99.90
43049;DHT22;28673;44.412;11.918;2024-02-14T05:23:15;3.80;99.90
43049;DHT22;28673;44.412;11.918;2024-02-14T05:25:43;3.80;99.90
43049;DHT22;28673;44.412;11.918;2024-02-14T05:28:09;3.80;99.90
43049;DHT22;28673;44.412;11.918;2024-02-14T05:30:39;3.80;99.90
43049;DHT22;28673;44.412;11.918;2024-02-14T05:33:05;3.80;99.90
43049;DHT22;28673;44.412;11.918;2024-02-14T05:35:31;3.80;99.90
43049;DHT22;28673;44.412;11.918;2024-02-14T05:37:57;3.70;99.90
43049;DHT22;28673;44.412;11.918;2024-02-14T05:40:22;3.70;99.90
43049;DHT22;28673;44.412;11.918;2024-02-14T05:42:49;3.70;99.90
43049;DHT22;28673;44.412;11.918;2024-02-14T05:45:15;3.70;99.90
43049;DHT22;28673;44.412;11.918;2024-02-14T05:47:42;3.70;99.90
43049;DHT22;28673;44.412;11.918;2024-02-14T05:50:08;3.70;99.90
43049;DHT22;28673;44.412;11.918;2024-02-14T05:52:37;3.60;99.90
43049;DHT22;28673;44.412;11.918;2024-02-14T05:55:03;3.60;99.90
43049;DHT22;28673;44.412;11.918;2024-02-14T05:57:29;3.60;99.90
43049;DHT22;28673;44.412;11.918;2024-02-14T05:59:54;3.70;99.90
43049;DHT22;28673;44.412;11.918;2024-02-14T06:02:20;3.60;99.90
43049;DHT22;28673;44.412;11.918;2024-02-14T06:04:47;3.60;99.90
43049;DHT22;28673;44.412;11.918;2024-02-14T06:07:12;3.70;99.90
43049;DHT22;28673;44.412;11.918;2024-02-14T06:09:38;3.60;99.90
43049;DHT22;28673;44.412;11.918;2024-02-14T06:12:04;3.70;99.90
43049;DHT22;28673;44.412;11.918;2024-02-14T06:14:30;3.60;99.90
43049;DHT22;28673;44.412;11.918;2024-02-14T06:16:59;3.70;99.90
43049;DHT22;28673;44.412;11.918;2024-02-14T06:19:26;3.70;99.90
43049;DHT22;28673;44.412;11.918;2024-02-14T06:21:52;3.70;99.90
43049;DHT22;28673;44.412;11.918;2024-02-14T06:24:18;3.70;99.90
43049;DHT22;28673;44.412;11.918;2024-02-14T06:26:45;3.60;99.90
43049;DHT22;28673;44.412;11.918;2024-02-14T06:29:10;3.70;99.90
43049;DHT22;28673;44.412;11.918;2024-02-14T06:31:36;3.70;99.90
43049;DHT22;28673;44.412;11.918;2024-02-14T06:34:02;3.60;99.90
43049;DHT22;28673;44.412;11.918;2024-02-14T06:36:28;3.70;99.90
43049;DHT22;28673;44.412;11.918;2024-02-14T06:38:53;3.70;99.90
43049;DHT22;28673;44.412;11.918;2024-02-14T06:41:19;3.70;99.90
43049;DHT22;28673;44.412;11.918;2024-02-14T06:43:46;3.60;99.90
43049;DHT22;28673;44.412;11.918;2024-02-14T06:46:11;3.60;99.90
43049;DHT22;28673;44.412;11.918;2024-02-14T06:48:38;3.70;99.90
43049;DHT22;28673;44.412;11.918;2024-02-14T06:51:06;3.70;99.90
43049;DHT22;28673;44.412;11.918;2024-02-14T06:53:31;3.70;99.90
43049;DHT22;28673;44.412;11.918;2024-02-14T06:55:57;3.70;99.90
43049;DHT22;28673;44.412;11.918;2024-02-14T06:58:23;3.70;99.90
43049;DHT22;28673;44.412;11.918;2024-02-14T07:00:49;3.70;99.90
43049;DHT22;28673;44.412;11.918;2024-02-14T07:03:15;3.70;99.90
43049;DHT22;28673;44.412;11.918;2024-02-14T07:05:41;3.70;99.90
43049;DHT22;28673;44.412;11.918;2024-02-14T07:08:07;3.70;99.90
43049;DHT22;28673;44.412;11.918;2024-02-14T07:10:33;3.70;99.90
43049;DHT22;28673;44.412;11.918;2024-02-14T07:12:59;3.80;99.90
43049;DHT22;28673;44.412;11.918;2024-02-14T07:15:25;3.80;99.90
43049;DHT22;28673;44.412;11.918;2024-02-14T07:17:54;3.80;99.90
43049;DHT22;28673;44.412;11.918;2024-02-14T07:20:21;3.80;99.90
43049;DHT22;28673;44.412;11.918;2024-02-14T07:22:47;3.90;99.90
43049;DHT22;28673;44.412;11.918;2024-02-14T07:25:21;3.90;99.90
43049;DHT22;28673;44.412;11.918;2024-02-14T07:27:46;3.90;99.90
43049;DHT22;28673;44.412;11.918;2024-02-14T07:30:15;4.00;99.90
43049;DHT22;28673;44.412;11.918;2024-02-14T07:32:41;4.00;99.90
43049;DHT22;28673;44.412;11.918;2024-02-14T07:35:07;4.00;99.90
43049;DHT22;28673;44.412;11.918;2024-02-14T07:37:33;4.00;99.90
43049;DHT22;28673;44.412;11.918;2024-02-14T07:39:58;4.10;99.90
43049;DHT22;28673;44.412;11.918;2024-02-14T07:42:27;4.10;99.90
43049;DHT22;28673;44.412;11.918;2024-02-14T07:44:53;4.10;99.90
43049;DHT22;28673;44.412;11.918;2024-02-14T07:47:19;4.20;99.90
43049;DHT22;28673;44.412;11.918;2024-02-14T07:49:45;4.30;99.90
43049;DHT22;28673;44.412;11.918;2024-02-14T07:52:10;4.40;99.90
43049;DHT22;28673;44.412;11.918;2024-02-14T07:54:36;4.50;99.90
43049;DHT22;28673;44.412;11.918;2024-02-14T07:57:02;4.60;99.90
43049;DHT22;28673;44.412;11.918;2024-02-14T07:59:28;4.70;99.90
43049;DHT22;28673;44.412;11.918;2024-02-14T08:01:54;4.80;99.90
43049;DHT22;28673;44.412;11.918;2024-02-14T08:04:20;4.90;99.90
43049;DHT22;28673;44.412;11.918;2024-02-14T08:06:46;5.10;99.90
43049;DHT22;28673;44.412;11.918;2024-02-14T08:09:14;5.20;99.90
43049;DHT22;28673;44.412;11.918;2024-02-14T08:11:40;5.30;99.90
43049;DHT22;28673;44.412;11.918;2024-02-14T08:14:06;5.40;99.90
43049;DHT22;28673;44.412;11.918;2024-02-14T08:16:32;5.50;99.90
43049;DHT22;28673;44.412;11.918;2024-02-14T08:18:58;5.60;99.90
43049;DHT22;28673;44.412;11.918;2024-02-14T08:21:28;5.70;99.90
43049;DHT22;28673;44.412;11.918;2024-02-14T08:23:54;5.80;99.90
43049;DHT22;28673;44.412;11.918;2024-02-14T08:26:23;6.00;99.90
43049;DHT22;28673;44.412;11.918;2024-02-14T08:28:49;6.10;99.90
43049;DHT22;28673;44.412;11.918;2024-02-14T08:31:15;6.30;99.90
43049;DHT22;28673;44.412;11.918;2024-02-14T08:33:41;6.40;99.90
43049;DHT22;28673;44.412;11.918;2024-02-14T08:36:08;6.50;99.90
43049;DHT22;28673;44.412;11.918;2024-02-14T08:38:34;6.60;99.90
43049;DHT22;28673;44.412;11.918;2024-02-14T08:41:03;6.80;99.90
43049;DHT22;28673;44.412;11.918;2024-02-14T08:43:30;6.90;99.90
43049;DHT22;28673;44.412;11.918;2024-02-14T08:45:57;7.00;99.90
43049;DHT22;28673;44.412;11.918;2024-02-14T08:48:23;7.10;99.90
43049;DHT22;28673;44.412;11.918;2024-02-14T08:50:49;7.20;99.90
43049;DHT22;28673;44.412;11.918;2024-02-14T08:53:16;7.30;99.90
43049;DHT22;28673;44.412;11.918;2024-02-14T08:55:41;7.40;99.90
43049;DHT22;28673;44.412;11.918;2024-02-14T08:58:07;7.60;99.90
43049;DHT22;28673;44.412;11.918;2024-02-14T09:00:35;7.70;99.90
43049;DHT22;28673;44.412;11.918;2024-02-14T09:03:04;7.90;99.90
43049;DHT22;28673;44.412;11.918;2024-02-14T09:05:30;8.00;99.90
43049;DHT22;28673;44.412;11.918;2024-02-14T09:07:56;8.20;99.90
43049;DHT22;28673;44.412;11.918;2024-02-14T09:10:22;8.30;99.90
43049;DHT22;28673;44.412;11.918;2024-02-14T09:12:48;8.40;99.90
43049;DHT22;28673;44.412;11.918;2024-02-14T09:15:14;8.50;99.90
43049;DHT22;28673;44.412;11.918;2024-02-14T09:17:40;8.70;99.90
43049;DHT22;28673;44.412;11.918;2024-02-14T09:20:08;8.70;99.90
43049;DHT22;28673;44.412;11.918;2024-02-14T09:22:35;8.90;99.90
43049;DHT22;28673;44.412;11.918;2024-02-14T09:25:02;9.00;99.90
43049;DHT22;28673;44.412;11.918;2024-02-14T09:27:31;9.10;99.90
43049;DHT22;28673;44.412;11.918;2024-02-14T09:29:58;9.20;99.90
43049;DHT22;28673;44.412;11.918;2024-02-14T09:32:24;9.30;99.90
43049;DHT22;28673;44.412;11.918;2024-02-14T09:34:50;9.40;99.90
43049;DHT22;28673;44.412;11.918;2024-02-14T09:37:16;9.50;99.90
43049;DHT22;28673;44.412;11.918;2024-02-14T09:39:42;9.60;99.90
43049;DHT22;28673;44.412;11.918;2024-02-14T09:42:13;9.60;99.90
43049;DHT22;28673;44.412;11.918;2024-02-14T09:44:40;9.80;99.90
43049;DHT22;28673;44.412;11.918;2024-02-14T09:47:07;9.90;99.90
43049;DHT22;28673;44.412;11.918;2024-02-14T09:49:35;10.00;99.90
43049;DHT22;28673;44.412;11.918;2024-02-14T09:52:02;10.20;99.90
43049;DHT22;28673;44.412;11.918;2024-02-14T09:54:30;10.30;99.90
43049;DHT22;28673;44.412;11.918;2024-02-14T09:56:57;10.50;99.90
43049;DHT22;28673;44.412;11.918;2024-02-14T09:59:24;10.60;99.90
43049;DHT22;28673;44.412;11.918;2024-02-14T10:01:50;10.80;99.90
43049;DHT22;28673;44.412;11.918;2024-02-14T10:04:17;11.10;99.90
43049;DHT22;28673;44.412;11.918;2024-02-14T10:06:45;11.30;99.90
43049;DHT22;28673;44.412;11.918;2024-02-14T10:09:10;11.50;99.90
43049;DHT22;28673;44.412;11.918;2024-02-14T10:11:37;11.80;99.90
43049;DHT22;28673;44.412;11.918;2024-02-14T10:14:08;12.00;99.90
43049;DHT22;28673;44.412;11.918;2024-02-14T10:16:37;12.30;99.90
43049;DHT22;28673;44.412;11.918;2024-02-14T10:19:03;12.40;99.90
43049;DHT22;28673;44.412;11.918;2024-02-14T10:21:33;12.60;99.90
43049;DHT22;28673;44.412;11.918;2024-02-14T10:24:00;12.80;99.90
43049;DHT22;28673;44.412;11.918;2024-02-14T10:26:25;13.00;99.90
43049;DHT22;28673;44.412;11.918;2024-02-14T10:28:51;13.10;99.90
43049;DHT22;28673;44.412;11.918;2024-02-14T10:31:17;13.30;99.90
43049;DHT22;28673;44.412;11.918;2024-02-14T10:33:43;13.50;99.90
43049;DHT22;28673;44.412;11.918;2024-02-14T10:36:12;13.60;99.90
43049;DHT22;28673;44.412;11.918;2024-02-14T10:38:39;13.80;99.90
43049;DHT22;28673;44.412;11.918;2024-02-14T10:41:05;14.00;99.90
43049;DHT22;28673;44.412;11.918;2024-02-14T10:43:33;14.10;99.90
43049;DHT22;28673;44.412;11.918;2024-02-14T10:46:07;14.30;99.90
43049;DHT22;28673;44.412;11.918;2024-02-14T10:48:35;14.50;99.90
43049;DHT22;28673;44.412;11.918;2024-02-14T10:51:04;14.60;99.90
43049;DHT22;28673;44.412;11.918;2024-02-14T10:53:33;14.80;99.90
43049;DHT22;28673;44.412;11.918;2024-02-14T10:56:00;15.00;99.90
43049;DHT22;28673;44.412;11.918;2024-02-14T10:58:30;15.20;99.90
43049;DHT22;28673;44.412;11.918;2024-02-14T11:00:56;15.30;99.90
43049;DHT22;28673;44.412;11.918;2024-02-14T11:03:23;15.40;99.90
43049;DHT22;28673;44.412;11.918;2024-02-14T11:05:49;15.50;99.90
43049;DHT22;28673;44.412;11.918;2024-02-14T11:08:19;15.50;99.90
43049;DHT22;28673;44.412;11.918;2024-02-14T11:10:56;15.60;99.90
43049;DHT22;28673;44.412;11.918;2024-02-14T11:13:30;15.80;99.90
43049;DHT22;28673;44.412;11.918;2024-02-14T11:16:02;15.90;99.90
43049;DHT22;28673;44.412;11.918;2024-02-14T11:18:30;16.00;99.90
43049;DHT22;28673;44.412;11.918;2024-02-14T11:20:56;16.20;99.90
43049;DHT22;28673;44.412;11.918;2024-02-14T11:23:25;16.30;99.90
43049;DHT22;28673;44.412;11.918;2024-02-14T11:26:05;16.40;99.90
43049;DHT22;28673;44.412;11.918;2024-02-14T11:28:37;16.50;99.90
43049;DHT22;28673;44.412;11.918;2024-02-14T11:31:07;16.60;99.90
43049;DHT22;28673;44.412;11.918;2024-02-14T11:33:35;16.70;99.90
43049;DHT22;28673;44.412;11.918;2024-02-14T11:36:07;16.80;99.90
43049;DHT22;28673;44.412;11.918;2024-02-14T11:38:35;16.90;99.90
43049;DHT22;28673;44.412;11.918;2024-02-14T11:41:02;17.00;99.90
43049;DHT22;28673;44.412;11.918;2024-02-14T11:43:29;17.10;99.90
43049;DHT22;28673;44.412;11.918;2024-02-14T11:45:55;17.20;99.90
43049;DHT22;28673;44.412;11.918;2024-02-14T11:48:22;17.30;99.90
43049;DHT22;28673;44.412;11.918;2024-02-14T11:50:52;17.40;99.90
43049;DHT22;28673;44.412;11.918;2024-02-14T11:53:18;17.50;99.90
43049;DHT22;28673;44.412;11.918;2024-02-14T11:55:45;17.60;99.90
43049;DHT22;28673;44.412;11.918;2024-02-14T11:58:16;17.70;99.90
43049;DHT22;28673;44.412;11.918;2024-02-14T12:00:43;17.80;99.90
43049;DHT22;28673;44.412;11.918;2024-02-14T12:03:18;18.00;99.90
43049;DHT22;28673;44.412;11.918;2024-02-14T12:05:46;18.10;99.90
43049;DHT22;28673;44.412;11.918;2024-02-14T12:08:13;18.20;99.90
43049;DHT22;28673;44.412;11.918;2024-02-14T12:10:42;18.30;99.90
43049;DHT22;28673;44.412;11.918;2024-02-14T12:13:11;18.50;99.90
43049;DHT22;28673;44.412;11.918;2024-02-14T12:15:41;18.50;99.90
43049;DHT22;28673;44.412;11.918;2024-02-14T12:18:08;18.60;99.90
43049;DHT22;28673;44.412;11.918;2024-02-14T12:20:34;18.50;99.90
43049;DHT22;28673;44.412;11.918;2024-02-14T12:23:02;18.50;99.90
43049;DHT22;28673;44.412;11.918;2024-02-14T12:25:27;18.60;99.90
43049;DHT22;28673;44.412;11.918;2024-02-14T12:27:56;18.60;99.90
43049;DHT22;28673;44.412;11.918;2024-02-14T12:30:23;18.70;99.90
43049;DHT22;28673;44.412;11.918;2024-02-14T12:32:59;18.70;99.90
43049;DHT22;28673;44.412;11.918;2024-02-14T12:35:27;18.90;99.90
43049;DHT22;28673;44.412;11.918;2024-02-14T12:37:52;19.00;99.90
43049;DHT22;28673;44.412;11.918;2024-02-14T12:40:19;19.00;99.90
43049;DHT22;28673;44.412;11.918;2024-02-14T12:42:45;19.10;99.90
43049;DHT22;28673;44.412;11.918;2024-02-14T12:45:11;19.10;99.90
43049;DHT22;28673;44.412;11.918;2024-02-14T12:47:37;19.20;99.90
43049;DHT22;28673;44.412;11.918;2024-02-14T12:50:03;19.20;99.90
43049;DHT22;28673;44.412;11.918;2024-02-14T12:52:32;19.40;99.90
43049;DHT22;28673;44.412;11.918;2024-02-14T12:54:59;19.40;99.90
43049;DHT22;28673;44.412;11.918;2024-02-14T12:57:25;19.50;99.90
43049;DHT22;28673;44.412;11.918;2024-02-14T12:59:51;19.50;99.90
43049;DHT22;28673;44.412;11.918;2024-02-14T13:02:17;19.60;99.90
43049;DHT22;28673;44.412;11.918;2024-02-14T13:04:42;19.70;99.90
43049;DHT22;28673;44.412;11.918;2024-02-14T13:07:08;19.80;99.90
43049;DHT22;28673;44.412;11.918;2024-02-14T13:09:34;19.90;99.90
43049;DHT22;28673;44.412;11.918;2024-02-14T13:12:01;19.90;99.90
43049;DHT22;28673;44.412;11.918;2024-02-14T13:14:26;19.90;99.90
43049;DHT22;28673;44.412;11.918;2024-02-14T13:16:52;20.00;99.90
43049;DHT22;28673;44.412;11.918;2024-02-14T13:19:18;20.00;99.90
43049;DHT22;28673;44.412;11.918;2024-02-14T13:21:44;20.00;99.90
43049;DHT22;28673;44.412;11.918;2024-02-14T13:24:11;20.10;99.90
43049;DHT22;28673;44.412;11.918;2024-02-14T13:26:38;20.10;99.90
43049;DHT22;28673;44.412;11.918;2024-02-14T13:29:04;20.20;99.90
43049;DHT22;28673;44.412;11.918;2024-02-14T13:31:29;20.10;99.90
43049;DHT22;28673;44.412;11.918;2024-02-14T13:33:55;20.10;99.90
43049;DHT22;28673;44.412;11.918;2024-02-14T13:36:21;20.10;99.90
43049;DHT22;28673;44.412;11.918;2024-02-14T13:38:49;20.20;99.90
43049;DHT22;28673;44.412;11.918;2024-02-14T13:41:15;20.30;99.90
43049;DHT22;28673;44.412;11.918;2024-02-14T13:43:40;20.30;99.90
43049;DHT22;28673;44.412;11.918;2024-02-14T13:46:07;20.30;99.90
43049;DHT22;28673;44.412;11.918;2024-02-14T13:48:35;20.30;99.90
43049;DHT22;28673;44.412;11.918;2024-02-14T13:51:00;20.30;99.80
43049;DHT22;28673;44.412;11.918;2024-02-14T13:53:28;20.20;99.70
43049;DHT22;28673;44.412;11.918;2024-02-14T13:55:54;20.10;99.70
43049;DHT22;28673;44.412;11.918;2024-02-14T13:58:21;20.10;99.50
43049;DHT22;28673;44.412;11.918;2024-02-14T14:00:46;20.10;99.30
43049;DHT22;28673;44.412;11.918;2024-02-14T14:03:12;20.00;99.40
43049;DHT22;28673;44.412;11.918;2024-02-14T14:05:38;19.90;99.20
43049;DHT22;28673;44.412;11.918;2024-02-14T14:08:04;20.00;98.90
43049;DHT22;28673;44.412;11.918;2024-02-14T14:10:30;19.90;99.30
43049;DHT22;28673;44.412;11.918;2024-02-14T14:12:56;20.00;99.40
43049;DHT22;28673;44.412;11.918;2024-02-14T14:15:21;20.00;99.30
43049;DHT22;28673;44.412;11.918;2024-02-14T14:17:47;19.90;99.10
43049;DHT22;28673;44.412;11.918;2024-02-14T14:20:14;19.90;99.30
43049;DHT22;28673;44.412;11.918;2024-02-14T14:22:40;19.80;99.10
43049;DHT22;28673;44.412;11.918;2024-02-14T14:25:06;19.80;99.10
43049;DHT22;28673;44.412;11.918;2024-02-14T14:27:34;19.80;99.10
43049;DHT22;28673;44.412;11.918;2024-02-14T14:29:59;19.70;99.00
43049;DHT22;28673;44.412;11.918;2024-02-14T14:32:25;19.70;99.00
43049;DHT22;28673;44.412;11.918;2024-02-14T14:34:51;19.70;99.30
43049;DHT22;28673;44.412;11.918;2024-02-14T14:37:16;19.70;99.30
43049;DHT22;28673;44.412;11.918;2024-02-14T14:39:42;19.70;99.10
43049;DHT22;28673;44.412;11.918;2024-02-14T14:42:09;19.70;99.40
43049;DHT22;28673;44.412;11.918;2024-02-14T14:44:35;19.60;99.40
43049;DHT22;28673;44.412;11.918;2024-02-14T14:47:02;19.60;99.30
43049;DHT22;28673;44.412;11.918;2024-02-14T14:49:27;19.60;99.30
43049;DHT22;28673;44.412;11.918;2024-02-14T14:51:53;19.60;99.50
43049;DHT22;28673;44.412;11.918;2024-02-14T14:54:19;19.60;99.40
43049;DHT22;28673;44.412;11.918;2024-02-14T14:56:45;19.60;99.30
43049;DHT22;28673;44.412;11.918;2024-02-14T14:59:12;19.60;99.30
43049;DHT22;28673;44.412;11.918;2024-02-14T15:01:37;19.50;99.60
43049;DHT22;28673;44.412;11.918;2024-02-14T15:04:04;19.50;99.30
43049;DHT22;28673;44.412;11.918;2024-02-14T15:06:31;19.40;99.30
43049;DHT22;28673;44.412;11.918;2024-02-14T15:08:57;19.30;99.30
43049;DHT22;28673;44.412;11.918;2024-02-14T15:11:23;19.20;99.20
43049;DHT22;28673;44.412;11.918;2024-02-14T15:13:49;19.10;99.30
43049;DHT22;28673;44.412;11.918;2024-02-14T15:16:14;19.00;99.40
43049;DHT22;28673;44.412;11.918;2024-02-14T15:18:40;19.00;99.50
43049;DHT22;28673;44.412;11.918;2024-02-14T15:21:09;19.00;99.30